createdAt,value
2023-05-15T00:02:51.191Z,12.41
2023-05-15T00:07:45.978Z,12.42
2023-05-15T00:12:39.273Z,12.45
2023-05-15T00:17:32.597Z,12.45
2023-05-15T00:22:26.296Z,12.41
2023-05-15T00:27:21.058Z,12.40
2023-05-15T00:32:14.401Z,12.33
2023-05-15T00:37:08.556Z,12.33
2023-05-15T00:42:03.739Z,12.16
2023-05-15T00:47:01.657Z,12.08
2023-05-15T00:51:55.076Z,12.06
2023-05-15T00:56:51.985Z,11.98
2023-05-15T01:01:45.415Z,12.00
2023-05-15T01:06:40.175Z,11.93
2023-05-15T01:11:36.996Z,12.04
2023-05-15T01:16:31.032Z,11.81
2023-05-15T01:22:20.239Z,11.65
2023-05-15T01:27:24.322Z,11.87
2023-05-15T01:32:25.217Z,11.89
2023-05-15T01:37:24.497Z,11.86
2023-05-15T01:42:23.012Z,11.87
2023-05-15T01:47:21.520Z,11.75
2023-05-15T01:52:19.994Z,11.73
2023-05-15T01:57:15.592Z,11.67
2023-05-15T02:02:13.560Z,11.66
2023-05-15T02:07:08.613Z,11.65
2023-05-15T02:12:03.553Z,11.64
2023-05-15T02:16:57.019Z,11.61
2023-05-15T02:21:51.726Z,11.57
2023-05-15T02:27:01.837Z,11.64
2023-05-15T02:32:09.430Z,11.58
2023-05-15T02:37:09.313Z,11.59
2023-05-15T02:42:03.734Z,11.69
2023-05-15T02:46:57.645Z,11.70
2023-05-15T02:51:51.910Z,11.67
2023-05-15T02:56:46.522Z,11.50
2023-05-15T03:01:39.853Z,11.44
2023-05-15T03:06:33.165Z,11.40
2023-05-15T03:11:26.562Z,11.44
2023-05-15T03:16:21.386Z,11.33
2023-05-15T03:21:14.794Z,11.23
2023-05-15T03:26:08.073Z,11.15
2023-05-15T03:31:01.413Z,11.15
2023-05-15T03:35:56.065Z,11.20
2023-05-15T03:40:51.144Z,11.32
2023-05-15T03:45:45.149Z,11.36
2023-05-15T03:50:39.283Z,11.57
2023-05-15T03:55:34.286Z,11.49
2023-05-15T04:00:27.717Z,11.50
2023-05-15T04:05:21.910Z,11.48
2023-05-15T04:10:15.485Z,11.60
2023-05-15T04:15:22.311Z,11.52
2023-05-15T04:20:19.029Z,11.48
2023-05-15T04:25:14.622Z,11.63
2023-05-15T04:30:09.717Z,11.70
2023-05-15T04:35:06.417Z,11.68
2023-05-15T04:39:59.724Z,11.72
2023-05-15T04:44:53.510Z,11.73
2023-05-15T04:49:47.811Z,11.71
2023-05-15T04:54:42.969Z,11.68
2023-05-15T04:59:36.237Z,11.77
2023-05-15T05:04:29.686Z,11.83
2023-05-15T05:09:23.055Z,11.86
2023-05-15T05:14:17.872Z,11.90
2023-05-15T05:19:11.283Z,11.93
2023-05-15T05:24:04.897Z,11.98
2023-05-15T05:28:58.258Z,12.06
2023-05-15T05:33:52.952Z,11.98
2023-05-15T05:38:46.182Z,12.09
2023-05-15T05:43:39.532Z,11.94
2023-05-15T05:48:32.924Z,11.88
2023-05-15T05:53:27.725Z,11.92
2023-05-15T05:58:25.417Z,12.05
2023-05-15T06:03:19.689Z,12.07
2023-05-15T06:08:13.087Z,11.96
2023-05-15T06:13:07.950Z,12.11
2023-05-15T06:18:01.280Z,12.05
2023-05-15T06:22:54.597Z,12.09
2023-05-15T06:27:48.145Z,12.13
2023-05-15T06:32:43.631Z,12.35
2023-05-15T06:37:38.252Z,12.36
2023-05-15T06:42:31.608Z,12.37
2023-05-15T06:47:25.171Z,12.56
2023-05-15T06:52:19.921Z,12.59
2023-05-15T06:57:13.224Z,12.57
2023-05-15T07:02:06.828Z,12.65
2023-05-15T07:07:00.286Z,12.64
2023-05-15T07:11:55.018Z,12.42
2023-05-15T07:16:48.386Z,12.44
2023-05-15T07:21:43.335Z,12.43
2023-05-15T07:26:43.896Z,12.36
2023-05-15T07:31:45.597Z,12.28
2023-05-15T07:36:38.941Z,12.47
2023-05-15T07:41:33.704Z,12.52
2023-05-15T07:46:27.268Z,12.62
2023-05-15T07:51:21.949Z,12.60
2023-05-15T07:56:15.242Z,12.76
2023-05-15T08:01:08.677Z,12.74
2023-05-15T08:06:01.987Z,12.95
2023-05-15T08:10:56.647Z,12.94
2023-05-15T08:15:49.983Z,12.93
2023-05-15T08:20:43.599Z,12.82
2023-05-15T08:25:37.040Z,12.83
2023-05-15T08:30:31.850Z,12.66
2023-05-15T08:35:25.343Z,12.48
2023-05-15T08:40:25.663Z,12.42
2023-05-15T08:45:29.236Z,12.43
2023-05-15T08:50:25.846Z,12.44
2023-05-15T08:55:19.382Z,12.74
2023-05-15T09:00:15.191Z,13.01
2023-05-15T09:05:10.692Z,13.21
2023-05-15T09:10:06.703Z,13.33
2023-05-15T09:15:12.279Z,13.32
2023-05-15T09:20:08.049Z,13.51
2023-05-15T09:25:03.223Z,14.01
2023-05-15T09:30:09.859Z,14.28
2023-05-15T09:35:03.113Z,14.19
2023-05-15T09:39:56.700Z,14.06
2023-05-15T09:44:50.077Z,14.03
2023-05-15T09:49:47.476Z,14.09
2023-05-15T09:54:41.067Z,14.16
2023-05-15T09:59:34.344Z,14.09
2023-05-15T10:04:27.788Z,14.20
2023-05-15T10:09:22.439Z,14.05
2023-05-15T10:14:21.023Z,14.07
2023-05-15T10:19:15.185Z,14.06
2023-05-15T10:24:09.751Z,14.30
2023-05-15T10:29:09.650Z,14.90
2023-05-15T10:34:03.697Z,15.37
2023-05-15T10:38:59.195Z,15.54
2023-05-15T10:43:55.389Z,15.73
2023-05-15T10:48:50.545Z,16.11
2023-05-15T10:53:44.649Z,16.04
2023-05-15T10:58:37.981Z,15.75
2023-05-15T11:03:48.787Z,15.37
2023-05-15T11:08:45.183Z,14.86
2023-05-15T11:14:15.364Z,15.24
2023-05-15T11:19:23.936Z,15.40
2023-05-15T11:24:18.652Z,16.22
2023-05-15T11:29:21.407Z,16.26
2023-05-15T11:34:15.136Z,15.97
2023-05-15T11:39:12.623Z,15.92
2023-05-15T11:44:07.299Z,15.82
2023-05-15T11:49:01.273Z,15.50
2023-05-15T11:53:56.543Z,15.97
2023-05-15T11:58:51.456Z,16.68
2023-05-15T12:03:50.061Z,16.91
2023-05-15T12:08:43.965Z,16.63
2023-05-15T12:13:37.861Z,16.96
2023-05-15T12:18:32.913Z,16.61
2023-05-15T12:23:29.551Z,16.66
2023-05-15T12:28:23.643Z,15.89
2023-05-15T12:33:17.184Z,15.76
2023-05-15T12:38:16.524Z,15.45
2023-05-15T12:43:12.499Z,15.63
2023-05-15T12:48:07.981Z,15.71
2023-05-15T12:53:05.149Z,15.61
2023-05-15T12:58:00.274Z,15.49
2023-05-15T13:02:58.035Z,15.58
2023-05-15T13:07:52.419Z,15.59
2023-05-15T13:12:47.476Z,15.55
2023-05-15T13:17:41.804Z,15.52
2023-05-15T13:22:36.495Z,15.14
2023-05-15T13:27:29.795Z,15.06
2023-05-15T13:32:24.197Z,15.17
2023-05-15T13:37:17.588Z,15.05
2023-05-15T13:42:12.248Z,14.76
2023-05-15T13:47:06.163Z,14.96
2023-05-15T13:51:59.550Z,14.98
2023-05-15T13:56:52.814Z,14.97
2023-05-15T14:01:48.232Z,14.91
2023-05-15T14:06:41.619Z,15.09
2023-05-15T14:11:35.769Z,15.39
2023-05-15T14:16:29.107Z,15.34
2023-05-15T14:21:24.310Z,15.37
2023-05-15T14:26:17.691Z,15.40
2023-05-15T14:31:11.876Z,15.17
2023-05-15T14:36:05.888Z,15.27
2023-05-15T14:41:00.700Z,15.19
2023-05-15T14:45:54.024Z,15.31
2023-05-15T14:50:47.360Z,15.27
2023-05-15T14:55:40.643Z,15.34
2023-05-15T15:00:35.454Z,15.40
2023-05-15T15:05:28.764Z,15.53
2023-05-15T15:10:22.036Z,15.66
2023-05-15T15:15:15.381Z,15.66
2023-05-15T15:20:12.188Z,15.76
2023-05-15T15:25:06.671Z,15.71
2023-05-15T15:30:00.227Z,15.76
2023-05-15T15:34:53.458Z,15.55
2023-05-15T15:39:48.210Z,15.64
2023-05-15T15:44:41.517Z,15.51
2023-05-15T15:49:34.846Z,15.52
2023-05-15T15:54:29.029Z,15.56
2023-05-15T15:59:23.697Z,15.44
2023-05-15T16:04:17.264Z,15.39
2023-05-15T16:09:10.648Z,15.30
2023-05-15T16:14:04.136Z,15.35
2023-05-15T16:18:58.878Z,15.36
2023-05-15T16:23:52.218Z,15.32
2023-05-15T16:28:45.558Z,15.30
2023-05-15T16:33:38.880Z,15.23
2023-05-15T16:38:33.586Z,15.15
2023-05-15T16:43:26.885Z,15.16
2023-05-15T16:48:20.141Z,15.14
2023-05-15T16:53:14.938Z,15.23
2023-05-15T16:58:09.705Z,15.20
2023-05-15T17:03:03.800Z,15.34
2023-05-15T17:07:57.156Z,15.22
2023-05-15T17:12:50.505Z,15.30
2023-05-15T17:17:45.215Z,15.17
2023-05-15T17:22:38.753Z,15.04
2023-05-15T17:27:32.379Z,15.05
2023-05-15T17:32:25.879Z,15.04
2023-05-15T17:37:20.792Z,14.97
2023-05-15T17:42:14.122Z,14.78
2023-05-15T17:47:08.543Z,14.76
2023-05-15T17:52:01.955Z,14.74
2023-05-15T17:56:56.616Z,14.67
2023-05-15T18:01:50.002Z,14.64
2023-05-15T18:06:43.361Z,14.59
2023-05-15T18:11:36.716Z,14.51
2023-05-15T18:16:32.841Z,14.37
2023-05-15T18:21:26.396Z,14.41
2023-05-15T18:26:19.669Z,14.33
2023-05-15T18:31:12.984Z,14.32
2023-05-15T18:36:08.417Z,14.32
2023-05-15T18:41:05.211Z,14.30
2023-05-15T18:46:01.346Z,14.28
2023-05-15T18:50:55.684Z,14.14
2023-05-15T18:55:50.469Z,13.92
2023-05-15T19:00:43.928Z,13.94
2023-05-15T19:05:41.928Z,13.69
2023-05-15T19:10:35.260Z,13.65
2023-05-15T19:15:29.898Z,13.47
2023-05-15T19:20:23.260Z,13.53
2023-05-15T19:25:16.630Z,13.52
2023-05-15T19:30:11.330Z,13.51
2023-05-15T19:35:06.842Z,13.47
2023-05-15T19:40:00.200Z,13.35
2023-05-15T19:44:53.496Z,13.32
2023-05-15T19:49:46.848Z,13.43
2023-05-15T19:55:03.708Z,13.44
2023-05-15T20:00:01.202Z,13.45
2023-05-15T20:04:54.465Z,13.30
2023-05-15T20:09:52.112Z,13.35
2023-05-15T20:14:52.304Z,13.13
2023-05-15T20:19:59.119Z,13.13
2023-05-15T20:25:01.897Z,13.20
2023-05-15T20:29:55.372Z,13.16
2023-05-15T20:34:50.773Z,12.88
2023-05-15T20:39:44.231Z,12.87
2023-05-15T20:44:39.521Z,12.61
2023-05-15T20:50:04.200Z,12.70
2023-05-15T20:54:57.597Z,12.78
2023-05-15T20:59:52.502Z,12.93
2023-05-15T21:04:48.789Z,12.99
2023-05-15T21:09:43.987Z,12.92
2023-05-15T21:14:37.245Z,12.79
2023-05-15T21:19:31.924Z,12.66
2023-05-15T21:24:25.323Z,12.82
2023-05-15T21:29:18.619Z,12.83
2023-05-15T21:34:12.053Z,12.73
2023-05-15T21:39:06.759Z,12.86
2023-05-15T21:44:00.045Z,13.00
2023-05-15T21:48:53.368Z,13.05
2023-05-15T21:53:46.674Z,13.00
2023-05-15T21:58:41.263Z,13.10
2023-05-15T22:03:34.746Z,12.88
2023-05-15T22:08:28.093Z,13.03
2023-05-15T22:13:21.346Z,12.93
2023-05-15T22:18:15.968Z,13.07
2023-05-15T22:23:09.261Z,13.11
2023-05-15T22:28:02.557Z,13.03
2023-05-15T22:32:56.069Z,13.08
2023-05-15T22:37:50.764Z,13.16
2023-05-15T22:42:44.003Z,13.11
2023-05-15T22:47:37.280Z,12.95
2023-05-15T22:52:30.651Z,12.88
2023-05-15T22:57:26.902Z,12.97
2023-05-15T23:02:20.268Z,13.01
2023-05-15T23:07:13.686Z,13.11
2023-05-15T23:12:08.035Z,12.97
2023-05-15T23:17:02.740Z,13.01
2023-05-15T23:21:56.162Z,13.10
2023-05-15T23:26:49.373Z,13.13
2023-05-15T23:31:43.288Z,13.03
2023-05-15T23:36:38.081Z,12.95
2023-05-15T23:41:31.422Z,12.91
2023-05-15T23:46:24.891Z,12.92
2023-05-15T23:51:18.285Z,12.79
2023-05-15T23:56:12.962Z,12.43
